This is the latest recevied weather packets stored in our database for station/object VE3ZEB-1. If no packets are shown the sender has not sent any weather packets the latest 10 day(s).
| Time | Temp. | Humidity | Pressure | Rain* | Wind** | Luminosity | Snow |
|---|---|---|---|---|---|---|---|
| 1778046030 | 8.33° C | 97% | 679.4 hPa | 0 mm | - | 0 W/m² | - |
| 1778045430 | 8.33° C | 97% | 679.4 hPa | 0 mm | - | 0 W/m² | - |
| 1778041231 | 8.33° C | 95% | 679.4 hPa | 0 mm | - | 0 W/m² | - |
| 1778039431 | 8.89° C | 94% | 679.4 hPa | 0 mm | - | 0 W/m² | - |
| 1778034632 | 8.89° C | 91% | 679.4 hPa | 0 mm | - | 0 W/m² | - |
| 1778032233 | 9.44° C | 87% | 679.4 hPa | 0 mm | - | 0 W/m² | - |
| 1778029818 | 9.44° C | 86% | 679.5 hPa | 0 mm | - | 0 W/m² | - |
| 1778028039 | 9.44° C | 85% | 679.5 hPa | 0 mm | - | 0 W/m² | - |
| 1778025619 | 10° C | 77% | 679.5 hPa | 0 mm | - | 4 W/m² | - |
| 1778023220 | 10° C | 76% | 679.5 hPa | 0 mm | - | 20 W/m² | - |
| 1778016621 | 10° C | 75% | 679.5 hPa | 0 mm | - | 54 W/m² | - |
| 1778015422 | 10.56° C | 75% | 679.5 hPa | 0 mm | - | 56 W/m² | - |
| 1778011843 | 10.56° C | 74% | 679.5 hPa | 0 mm | - | 54 W/m² | - |
| 1778010623 | 11.11° C | 74% | 679.5 hPa | 0.25 mm | - | 56 W/m² | - |
| 1778008823 | 11.11° C | 72% | 679.6 hPa | 0.51 mm | - | 49 W/m² | - |
| 1778008223 | 11.67° C | 72% | 679.6 hPa | 0.76 mm | - | 76 W/m² | - |
| 1778007644 | 11.67° C | 71% | 679.6 hPa | 1.02 mm | - | 89 W/m² | - |
| 1778007023 | 12.22° C | 69% | 679.6 hPa | 0.76 mm | - | 77 W/m² | - |
| 1778006424 | 12.22° C | 69% | 679.6 hPa | 0.76 mm | - | 131 W/m² | - |
| 1778001025 | 16.11° C | 50% | 679.8 hPa | 0 mm | - | 313 W/m² | - |
| 1777999825 | 16.11° C | 52% | 679.8 hPa | 0 mm | - | 264 W/m² | - |
| 1777998645 | 16.11° C | 53% | 679.8 hPa | 0 mm | - | 300 W/m² | - |
| 1777997425 | 16.11° C | 55% | 679.8 hPa | 0 mm | - | 453 W/m² | - |
| 1777993227 | 16.67° C | 55% | 679.8 hPa | 0 mm | - | 593 W/m² | - |
| 1777992627 | 16.11° C | 58% | 679.8 hPa | 0 mm | - | 600 W/m² | - |
* Rain latest hour (hover to see other rain measurements)
** Current wind speed in m/s (hover to see current wind gust speed)